Wan Hai 510 — 9VJJ8 — position and weather

sailwx.info

Track history (hours):
 
Tides and Currents Weather Stations Pressure Air Temp Water Temp Dewpoint Dewpoint Depression Visibility Wind Speed Wind Dir Waves Ship Positions

Wan Hai 510

Last reported at 2016-Aug-22 01:22 UTC. Time now 2016-Aug-25 18:29 UTC.
Position N 01°11' E 103°40'.

Length 269 m; draft 10.9 m.

Type: Ship. MMSI: 565706755.

Date/timePositionNaut miles runAvg speedWind from/ knotsBaromVisibWave heightAir tempDewpointWater temp
2016-Aug-22 01:22N 01°11' E 103°40'1112.4
2016-Aug-22 00:31N 01°12' E 103°51'4 4.3
2016-Aug-21 23:30N 01°16' E 103°51'0 0.0
2016-Aug-21 22:30N 01°16' E 103°51'0 0.0
2016-Aug-21 21:32N 01°16' E 103°51'0 0.0
2016-Aug-21 20:33N 01°16' E 103°51'0 0.0
2016-Aug-21 19:30N 01°16' E 103°51'0 0.0
2016-Aug-21 18:30N 01°16' E 103°51'0 0.0
2016-Aug-21 17:30N 01°16' E 103°51'0 0.0
2016-Aug-21 16:24N 01°16' E 103°51'0 0.0
2016-Aug-21 15:33N 01°16' E 103°51'0 0.0
2016-Aug-21 14:30N 01°16' E 103°51'0 0.0
2016-Aug-21 13:30N 01°16' E 103°51'0 0.0
2016-Aug-21 12:30N 01°16' E 103°51'0 0.1
2016-Aug-21 11:33N 01°16' E 103°51'6 5.7
2016-Aug-21 10:33N 01°15' E 103°57'  
2016-Aug-18 01:29N 22°17' E 114°06'1212.5
2016-Aug-18 00:30N 22°23' E 113°54'4 3.7
2016-Aug-17 23:20N 22°27' E 113°53'0 0.0
2016-Aug-17 22:14N 22°27' E 113°53'0 0.0
2016-Aug-17 21:32N 22°27' E 113°53'0 0.0
2016-Aug-17 20:32N 22°27' E 113°53'0 0.0
2016-Aug-17 17:32N 22°27' E 113°53'0 0.0
2016-Aug-17 16:32N 22°27' E 113°53'0 0.0
2016-Aug-17 15:32N 22°27' E 113°53'0 0.0
2016-Aug-17 14:32N 22°27' E 113°53'0 0.0
2016-Aug-17 13:32N 22°27' E 113°53'0 0.0
2016-Aug-17 12:32N 22°27' E 113°53'0 0.0
2016-Aug-17 11:32N 22°27' E 113°53'0 0.0
2016-Aug-17 10:32N 22°27' E 113°53'3 3.0
2016-Aug-17 09:33N 22°24' E 113°54'1110.1
2016-Aug-17 08:27N 22°20' E 114°05'2 0.1
2016-Aug-16 16:07N 22°20' E 114°07'2 3.7
2016-Aug-16 15:33N 22°19' E 114°06'33112.6
2016-Aug-15 13:14N 22°33' E 120°03'811.0
2016-Aug-15 12:33N 22°33' E 120°12'8 2.3
2016-Aug-15 09:14N 22°33' E 120°20'0 0.0
2016-Aug-15 08:26N 22°33' E 120°20'0 0.0
2016-Aug-15 07:32N 22°33' E 120°20'0 0.0
2016-Aug-15 06:20N 22°33' E 120°20'0 0.0
2016-Aug-14 15:20N 22°33' E 120°20'0 0.0
2016-Aug-14 10:23N 22°33' E 120°20'0 0.0
2016-Aug-14 09:29N 22°33' E 120°20'1 0.7
2016-Aug-14 08:33N 22°33' E 120°19'8 8.0
2016-Aug-14 07:33N 22°31' E 120°11'9 9.2
2016-Aug-14 06:33N 22°38' E 120°04'4 1.8
2016-Aug-14 04:28N 22°34' E 120°05'2 1.6
2016-Aug-14 03:28N 22°33' E 120°06'2 1.6
2016-Aug-14 02:28N 22°31' E 120°06'  
Track history (hours):
 
Tides and Currents Weather Stations Pressure Air Temp Water Temp Dewpoint Dewpoint Depression Visibility Wind Speed Wind Dir Waves Ship Positions

Wan Hai 510

Last reported at 2016-Aug-22 01:22 UTC. Time now 2016-Aug-25 18:29 UTC.
Position N 01°11' E 103°40'.

Length 269 m; draft 10.9 m.

Type: Ship. MMSI: 565706755.

Date/timePositionNaut miles runAvg speedWind from/ knotsBaromVisibWave heightAir tempDewpointWater temp
2016-Aug-22 01:22N 01°11' E 103°40'1112.4
2016-Aug-22 00:31N 01°12' E 103°51'4 4.3
2016-Aug-21 23:30N 01°16' E 103°51'0 0.0
2016-Aug-21 22:30N 01°16' E 103°51'0 0.0
2016-Aug-21 21:32N 01°16' E 103°51'0 0.0
2016-Aug-21 20:33N 01°16' E 103°51'0 0.0
2016-Aug-21 19:30N 01°16' E 103°51'0 0.0
2016-Aug-21 18:30N 01°16' E 103°51'0 0.0
2016-Aug-21 17:30N 01°16' E 103°51'0 0.0
2016-Aug-21 16:24N 01°16' E 103°51'0 0.0
2016-Aug-21 15:33N 01°16' E 103°51'0 0.0
2016-Aug-21 14:30N 01°16' E 103°51'0 0.0
2016-Aug-21 13:30N 01°16' E 103°51'0 0.0
2016-Aug-21 12:30N 01°16' E 103°51'0 0.1
2016-Aug-21 11:33N 01°16' E 103°51'6 5.7
2016-Aug-21 10:33N 01°15' E 103°57'  
2016-Aug-18 01:29N 22°17' E 114°06'1212.5
2016-Aug-18 00:30N 22°23' E 113°54'4 3.7
2016-Aug-17 23:20N 22°27' E 113°53'0 0.0
2016-Aug-17 22:14N 22°27' E 113°53'0 0.0
2016-Aug-17 21:32N 22°27' E 113°53'0 0.0
2016-Aug-17 20:32N 22°27' E 113°53'0 0.0
2016-Aug-17 17:32N 22°27' E 113°53'0 0.0
2016-Aug-17 16:32N 22°27' E 113°53'0 0.0
2016-Aug-17 15:32N 22°27' E 113°53'0 0.0
2016-Aug-17 14:32N 22°27' E 113°53'0 0.0
2016-Aug-17 13:32N 22°27' E 113°53'0 0.0
2016-Aug-17 12:32N 22°27' E 113°53'0 0.0
2016-Aug-17 11:32N 22°27' E 113°53'0 0.0
2016-Aug-17 10:32N 22°27' E 113°53'3 3.0
2016-Aug-17 09:33N 22°24' E 113°54'1110.1
2016-Aug-17 08:27N 22°20' E 114°05'2 0.1
2016-Aug-16 16:07N 22°20' E 114°07'2 3.7
2016-Aug-16 15:33N 22°19' E 114°06'33112.6
2016-Aug-15 13:14N 22°33' E 120°03'811.0
2016-Aug-15 12:33N 22°33' E 120°12'8 2.3
2016-Aug-15 09:14N 22°33' E 120°20'0 0.0
2016-Aug-15 08:26N 22°33' E 120°20'0 0.0
2016-Aug-15 07:32N 22°33' E 120°20'0 0.0
2016-Aug-15 06:20N 22°33' E 120°20'0 0.0
2016-Aug-14 15:20N 22°33' E 120°20'0 0.0
2016-Aug-14 10:23N 22°33' E 120°20'0 0.0
2016-Aug-14 09:29N 22°33' E 120°20'1 0.7
2016-Aug-14 08:33N 22°33' E 120°19'8 8.0
2016-Aug-14 07:33N 22°31' E 120°11'9 9.2
2016-Aug-14 06:33N 22°38' E 120°04'4 1.8
2016-Aug-14 04:28N 22°34' E 120°05'2 1.6
2016-Aug-14 03:28N 22°33' E 120°06'2 1.6
2016-Aug-14 02:28N 22°31' E 120°06'  

Dump ship's entire track history